メインページ
METAR-TAF:

METAR-TAF

空港 :

サンパウロ, サンパウロ州, ブラジル

コンゴーニャス空港

緯度: 23-37S, 経度: 046-39W, 海抜: 803m

現時点の気象観測

当レポートは27分前の21:00(UTC)に作成
の風 11kt
気温 19°C
湿度 83%
気圧 1020 hPa
視程10km以上
高度700ftの雲は散在している
高度1100ftの曇り
小雨

METAR: SBSP 202100Z 17011KT 9999 -RA SCT007 OVC011 19/16 Q1020

時間: 19:27 (21:27 UTC)

予報

当レポートは5時間24分前の16:03(UTC)に作成
予報は20日の 18時(UTC)から 21日の 18時(UTC)まで有効
南/南東の風 10kt
視程10km以上
高度2000ftの雲は散在している
20日の 19時(UTC)から 20日の 21時(UTC)まで徐々に
高度1100ftの千切れ雲あり
確率 30%
20日の 21時(UTC)から 21日の 01時(UTC)まで
視程: 8000m
高度600ftの千切れ雲あり
21日の 02時(UTC)から 21日の 04時(UTC)まで徐々に
東/南東の風 4kt
高度1100ftの雲はほとんどない
21日の 05時(UTC)から 21日の 07時(UTC)まで徐々に
の風 4kt
確率 30%
21日の 07時(UTC)から 21日の 10時(UTC)まで
高度600ftの千切れ雲あり
21日の 10時(UTC)から 21日の 12時(UTC)まで徐々に
東/北東の風 10kt
視程10km以上
高度2000ftの雲はほとんどない
21日の 13時(UTC)から 21日の 15時(UTC)まで徐々に
の風 10kt
高度3500ftの雲はほとんどない
21日の 15時(UTC)から 21日の 17時(UTC)まで徐々に
北/北西の風 10kt

TAF: SBSP 201603Z 2018/2118 16010KT 9999 SCT020 TN20/2108Z TX32/2117Z BECMG 2019/2021 BKN011 PROB30 2021/2101 8000 BKN006 BECMG 2102/2104 12004KT FEW011 BECMG 2105/2107 09004KT PROB30 2107/2110 BKN006 BECMG 2110/2112 06010KT 9999 FEW020 BECMG 2113/2115 01010KT FEW035 BECMG 2115/2117 34010KT RMK PGM

4,000以上の空港の気象観測と天気予報(METAR報とTAF報)

利用可能な観測所は地図上に黄色い丸と赤い丸で示す。

丸の上にカーソルを重ねると観測所名を参照できる。

次にクリックすると気象観測と天気予報を参照できる。

マップの切り替え:黒色「×」印の緑ボタンをクリックして拡大、「-」印の緑ボタンをクリックして縮小、緑色の三角印をクリックして隣りの地図に切り替え


METAR-TAF: